Sandia Park, NM (87047)

02:03 AM MST del 06 Febbraio 2016 (GMT -0700)
Mike in Sandia Knolls | | Change Station
CLOSE
Current Station
Stazione meteo personale
Location: Sandia Park, NM
Altitudine: 6693 ft
Stazioni meteo nelle vicinanze

Alt. 6693 ft 35.17 °N, 106.31 °W | Updated 8 minutes ago

Sereno
Sereno
10.7 °F
Sembra 11 °F
N
0.0
Vento Variabile Vento da ESE
Gusts 1.0 mph

Oggi
Massima -- | Minima -- °F
--% Possibilità di precip.
Ieri
Massima -- | Minima -- °F
Precip. -- in
Pressione 30.50 in
Visibilità 10.0 miglia
Nuvole Sereno
Raffreddamento del vento 11 °F
Punto di rugiada 7 °F
Umidità 84%
Piovosità 0.00 in
Spessore del manto nevoso Non disponibile.
7:00 AM 5:38 PM
Luna calante, 6% visible
METAR KABQ 060852Z 02006KT 10SM CLR M02/M11 A3047 RMK AO2 SLP328 T10221111 51001
Pressione 30.50 in
Visibilità 10.0 miglia
Nuvole Sereno
Raffreddamento del vento 11 °F
Punto di rugiada 7 °F
Umidità 84%
Piovosità 0.00 in
Spessore del manto nevoso Non disponibile.
7:00 AM 5:38 PM
Luna calante, 6% visible
METAR KABQ 060852Z 02006KT 10SM CLR M02/M11 A3047 RMK AO2 SLP328 T10221111 51001

10-Day Weather Forecast

Almanac

Astronomia

Feb. 06, 2016 Alba Tramonto
Ora attuale
Crepuscolo civile
Crepuscolo nautico
Crepuscolo astronomico
Luna
Estensione della luce visibile
Lunghezza del giorno
Tomorrow will be .
, % of the Moon is Illuminated

Gli estremi di oggi

State Highs State Lows

Community

WunderPhotos

Upload Photos

1,890,933 foto caricate!

WunderBlog® & News

Nearby

Qualità dell'aria

  Qualità dell'aria Indice AQ Inquinante
Not available.

Profondità neve

Stazione Profondità Altitudine

Attività sismica

Città  Distanza Mag. Data & Ora
Minimo Magnitudo Mostrato è 2.5.

Temperature delle acque costiere

Località Temperatura

Stations

Stazioni meteo nelle vicinanze

Ubicazione della stazione Temp. Raffreddamento del vento Punto di rugiada Umidità Vento Precip. Alt. Aggiornato Tipo
                   

Watches & Warnings

There are currently no watches in effect.